createdAt,value
2022-11-22T00:00:21.102Z,99944.19
2022-11-22T00:03:07.831Z,99949.06
2022-11-22T00:05:34.265Z,99936.88
2022-11-22T00:08:00.761Z,99929.09
2022-11-22T00:10:26.988Z,99927.03
2022-11-22T00:12:54.067Z,99929.06
2022-11-22T00:15:20.295Z,99931.75
2022-11-22T00:17:46.719Z,99921.03
2022-11-22T00:20:13.570Z,99903.88
2022-11-22T00:22:44.479Z,99907.44
2022-11-22T00:25:12.353Z,99899.88
2022-11-22T00:27:39.180Z,99898.31
2022-11-22T00:30:05.898Z,99888.34
2022-11-22T00:32:32.758Z,99879.44
2022-11-22T00:34:58.973Z,99874.59
2022-11-22T00:37:25.403Z,99866.59
2022-11-22T00:39:51.492Z,99880.19
2022-11-22T00:42:17.991Z,99869.75
2022-11-22T00:44:44.080Z,99860.63
2022-11-22T00:47:10.481Z,99868.31
2022-11-22T00:49:36.631Z,99864.66
2022-11-22T00:52:03.029Z,99878.03
2022-11-22T00:54:29.145Z,99877.53
2022-11-22T00:56:55.547Z,99879.13
2022-11-22T00:59:21.750Z,99871.44
2022-11-22T01:01:48.181Z,99874.38
2022-11-22T01:04:14.288Z,99865.72
2022-11-22T01:06:40.753Z,99868.28
2022-11-22T01:09:07.838Z,99871.06
2022-11-22T01:11:34.200Z,99863.53
2022-11-22T01:14:00.286Z,99860.38
2022-11-22T01:16:26.686Z,99864.13
2022-11-22T01:18:52.811Z,99857.41
2022-11-22T01:21:19.217Z,99866.31
2022-11-22T01:23:45.341Z,99865.81
2022-11-22T01:26:11.826Z,99876.41
2022-11-22T01:28:37.962Z,99884.28
2022-11-22T01:31:04.309Z,99877.47
2022-11-22T01:33:30.426Z,99881.03
2022-11-22T01:35:57.729Z,99875.78
2022-11-22T01:38:23.890Z,99882.47
2022-11-22T01:40:50.295Z,99873.84
2022-11-22T01:43:22.608Z,99865.34
2022-11-22T01:45:53.282Z,99871.06
2022-11-22T01:48:31.095Z,99865.97
2022-11-22T01:51:02.731Z,99855.16
2022-11-22T01:53:34.312Z,99852.50
2022-11-22T01:56:03.372Z,99855.41
2022-11-22T01:58:33.037Z,99844.34
2022-11-22T02:01:00.883Z,99839.47
2022-11-22T02:03:28.810Z,99851.75
2022-11-22T02:05:55.918Z,99838.59
2022-11-22T02:08:55.636Z,99843.00
2022-11-22T02:11:23.991Z,99835.47
2022-11-22T02:13:51.800Z,99846.53
2022-11-22T02:16:19.150Z,99847.63
2022-11-22T02:18:45.368Z,99856.88
2022-11-22T02:21:11.869Z,99861.47
2022-11-22T02:23:45.334Z,99857.81
2022-11-22T02:26:12.696Z,99850.00
2022-11-22T02:28:39.932Z,99852.59
2022-11-22T02:31:06.594Z,99846.59
2022-11-22T02:33:32.887Z,99852.97
2022-11-22T02:35:59.677Z,99854.66
2022-11-22T02:38:30.874Z,99843.59
2022-11-22T02:41:08.150Z,99846.88
2022-11-22T02:43:39.454Z,99838.59
2022-11-22T02:46:11.925Z,99836.44
2022-11-22T02:48:42.115Z,99827.31
2022-11-22T02:51:08.767Z,99822.69
2022-11-22T02:53:34.920Z,99827.06
2022-11-22T02:56:01.288Z,99827.78
2022-11-22T02:58:27.767Z,99833.59
2022-11-22T03:00:54.407Z,99826.91
2022-11-22T03:03:20.655Z,99826.53
2022-11-22T03:05:46.987Z,99824.25
2022-11-22T03:08:13.024Z,99823.25
2022-11-22T03:10:39.408Z,99816.81
2022-11-22T03:13:05.560Z,99820.50
2022-11-22T03:15:32.048Z,99809.81
2022-11-22T03:17:59.383Z,99812.69
2022-11-22T03:20:26.542Z,99808.03
2022-11-22T03:22:53.041Z,99810.44
2022-11-22T03:25:19.614Z,99810.03
2022-11-22T03:27:47.667Z,99804.78
2022-11-22T03:30:14.794Z,99810.03
2022-11-22T03:32:41.354Z,99803.81
2022-11-22T03:35:08.421Z,99804.69
2022-11-22T03:37:34.576Z,99806.88
2022-11-22T03:40:00.955Z,99806.00
2022-11-22T03:42:27.119Z,99807.94
2022-11-22T03:44:53.561Z,99805.78
2022-11-22T03:47:19.877Z,99804.91
2022-11-22T03:49:46.550Z,99805.47
2022-11-22T03:52:12.824Z,99802.56
2022-11-22T03:54:39.331Z,99786.78
2022-11-22T03:57:05.820Z,99792.41
2022-11-22T03:59:32.589Z,99792.97
2022-11-22T04:01:59.479Z,99787.28
2022-11-22T04:04:26.578Z,99793.75
2022-11-22T04:06:53.015Z,99785.78
2022-11-22T04:09:19.681Z,99786.28
2022-11-22T04:11:46.090Z,99794.84
2022-11-22T04:14:41.695Z,99796.13
2022-11-22T04:17:07.821Z,99791.69
2022-11-22T04:19:34.239Z,99794.97
2022-11-22T04:22:00.328Z,99802.47
2022-11-22T04:24:45.182Z,99801.13
2022-11-22T04:27:11.303Z,99798.56
2022-11-22T04:29:37.823Z,99808.19
2022-11-22T04:32:22.667Z,99823.81
2022-11-22T04:34:49.494Z,99812.34
2022-11-22T04:37:15.682Z,99815.50
2022-11-22T04:39:42.321Z,99813.78
2022-11-22T04:42:27.387Z,99825.09
2022-11-22T04:44:53.918Z,99819.41
2022-11-22T04:47:38.566Z,99818.19
2022-11-22T04:50:27.523Z,99821.56
2022-11-22T04:52:55.826Z,99825.75
2022-11-22T04:55:24.172Z,99834.25
2022-11-22T04:57:53.213Z,99836.81
2022-11-22T05:00:24.461Z,99829.59
2022-11-22T05:02:50.866Z,99822.31
2022-11-22T05:05:18.300Z,99832.63
2022-11-22T05:07:44.516Z,99820.75
2022-11-22T05:10:11.364Z,99828.91
2022-11-22T05:12:37.435Z,99835.88
2022-11-22T05:15:04.252Z,99821.47
2022-11-22T05:17:30.476Z,99827.19
2022-11-22T05:19:56.940Z,99813.91
2022-11-22T05:22:47.449Z,99821.19
2022-11-22T05:25:14.086Z,99811.16
2022-11-22T05:27:40.235Z,99800.13
2022-11-22T05:30:07.301Z,99805.00
2022-11-22T05:32:33.705Z,99799.78
2022-11-22T05:35:00.171Z,99800.25
2022-11-22T05:37:26.317Z,99795.63
2022-11-22T05:39:53.012Z,99808.34
2022-11-22T05:42:19.145Z,99808.28
2022-11-22T05:44:45.533Z,99801.72
2022-11-22T05:47:12.017Z,99810.84
2022-11-22T05:49:38.418Z,99810.72
2022-11-22T05:52:04.808Z,99820.72
2022-11-22T05:54:31.373Z,99812.59
2022-11-22T05:56:58.161Z,99813.81
2022-11-22T05:59:24.732Z,99805.53
2022-11-22T06:01:51.043Z,99813.16
2022-11-22T06:04:17.866Z,99819.88
2022-11-22T06:06:46.450Z,99821.91
2022-11-22T06:09:12.859Z,99806.22
2022-11-22T06:11:39.019Z,99833.03
2022-11-22T06:14:08.540Z,99824.94
2022-11-22T06:16:34.732Z,99823.09
2022-11-22T06:19:01.217Z,99825.44
2022-11-22T06:21:28.026Z,99833.13
2022-11-22T06:23:55.554Z,99850.16
2022-11-22T06:26:23.973Z,99848.81
2022-11-22T06:28:50.881Z,99842.00
2022-11-22T06:31:18.480Z,99838.97
2022-11-22T06:33:45.473Z,99834.84
2022-11-22T06:36:19.064Z,99839.56
2022-11-22T06:38:46.282Z,99849.41
2022-11-22T06:41:15.402Z,99850.38
2022-11-22T06:43:48.725Z,99858.78
2022-11-22T06:46:17.313Z,99859.13
2022-11-22T06:48:43.974Z,99860.59
2022-11-22T06:51:19.008Z,99860.94
2022-11-22T06:53:48.479Z,99855.34
2022-11-22T06:56:37.067Z,99866.75
2022-11-22T06:59:05.378Z,99864.72
2022-11-22T07:01:33.696Z,99879.25
2022-11-22T07:04:01.440Z,99875.03
2022-11-22T07:06:30.173Z,99873.78
2022-11-22T07:08:58.630Z,99879.72
2022-11-22T07:11:27.388Z,99881.66
2022-11-22T07:13:58.103Z,99871.78
2022-11-22T07:16:27.632Z,99872.13
2022-11-22T07:18:54.312Z,99880.06
2022-11-22T07:21:23.033Z,99877.78
2022-11-22T07:23:51.701Z,99875.81
2022-11-22T07:26:20.420Z,99872.41
2022-11-22T07:28:47.451Z,99872.94
2022-11-22T07:31:15.812Z,99869.81
2022-11-22T07:33:42.859Z,99863.03
2022-11-22T07:36:17.338Z,99862.97
2022-11-22T07:38:44.833Z,99868.97
2022-11-22T07:41:11.147Z,99858.63
2022-11-22T07:43:38.054Z,99863.25
2022-11-22T07:46:32.285Z,99854.03
2022-11-22T07:49:00.365Z,99838.69
2022-11-22T07:51:27.096Z,99846.78
2022-11-22T07:53:54.297Z,99865.25
2022-11-22T07:56:20.479Z,99852.97
2022-11-22T07:58:47.245Z,99853.22
2022-11-22T08:01:16.064Z,99844.66
2022-11-22T08:03:43.422Z,99864.75
2022-11-22T08:06:11.611Z,99872.38
2022-11-22T08:08:38.297Z,99870.31
2022-11-22T08:11:05.719Z,99883.84
2022-11-22T08:13:32.994Z,99879.84
2022-11-22T08:16:12.308Z,99875.50
2022-11-22T08:18:39.513Z,99867.94
2022-11-22T08:21:08.968Z,99863.34
2022-11-22T08:23:36.568Z,99869.31
2022-11-22T08:26:04.222Z,99872.81
2022-11-22T08:28:31.447Z,99861.31
2022-11-22T08:31:03.368Z,99866.41
2022-11-22T08:33:30.384Z,99863.34
2022-11-22T08:35:56.736Z,99857.50
2022-11-22T08:38:23.611Z,99855.63
2022-11-22T08:40:50.344Z,99851.25
2022-11-22T08:43:17.200Z,99850.16
2022-11-22T08:45:45.663Z,99856.72
2022-11-22T08:48:14.480Z,99850.88
2022-11-22T08:50:59.007Z,99840.03
2022-11-22T08:53:26.843Z,99845.72
2022-11-22T08:55:54.197Z,99851.53
2022-11-22T08:58:21.608Z,99847.16
2022-11-22T09:00:48.201Z,99853.50
2022-11-22T09:03:15.264Z,99859.63
2022-11-22T09:08:31.283Z,99873.13
2022-11-22T09:11:02.279Z,99862.06
2022-11-22T09:13:29.677Z,99859.63
2022-11-22T09:16:01.111Z,99857.16
2022-11-22T09:18:27.794Z,99844.41
2022-11-22T09:21:02.556Z,99841.13
2022-11-22T09:23:30.660Z,99839.22
2022-11-22T09:26:07.124Z,99839.56
2022-11-22T09:28:34.468Z,99830.53
2022-11-22T09:31:06.259Z,99831.13
2022-11-22T09:33:34.157Z,99820.78
2022-11-22T09:36:02.094Z,99821.56
2022-11-22T09:38:29.598Z,99830.50
2022-11-22T09:40:57.090Z,99828.91
2022-11-22T09:43:31.772Z,99821.38
2022-11-22T09:46:31.211Z,99821.72
2022-11-22T09:49:12.919Z,99819.88
2022-11-22T09:51:45.769Z,99822.41
2022-11-22T09:54:26.338Z,99818.09
2022-11-22T09:56:55.844Z,99815.19
2022-11-22T09:59:28.845Z,99806.53
2022-11-22T10:02:03.419Z,99809.00
2022-11-22T10:04:43.500Z,99811.81
2022-11-22T10:07:56.935Z,99810.28
2022-11-22T10:10:34.018Z,99817.38
2022-11-22T10:13:05.797Z,99817.56
2022-11-22T10:15:44.152Z,99808.72
2022-11-22T10:18:22.307Z,99813.59
2022-11-22T10:20:49.459Z,99802.91
2022-11-22T10:23:20.707Z,99802.41
2022-11-22T10:26:02.105Z,99796.00
2022-11-22T10:28:35.811Z,99799.16
2022-11-22T10:31:14.271Z,99800.41
2022-11-22T10:33:50.459Z,99799.22
2022-11-22T10:36:29.283Z,99794.78
2022-11-22T10:39:34.526Z,99797.78
2022-11-22T10:42:14.240Z,99794.88
2022-11-22T10:45:14.661Z,99799.53
2022-11-22T10:48:17.923Z,99795.06
2022-11-22T10:51:04.544Z,99804.13
2022-11-22T10:53:43.249Z,99808.78
2022-11-22T10:56:32.927Z,99817.00
2022-11-22T10:59:28.716Z,99801.31
2022-11-22T11:02:26.871Z,99797.19
2022-11-22T11:04:57.075Z,99798.25
2022-11-22T11:07:25.022Z,99792.19
2022-11-22T11:10:11.478Z,99794.81
2022-11-22T11:12:46.321Z,99788.75
2022-11-22T11:15:37.338Z,99788.34
2022-11-22T11:18:10.870Z,99788.09
2022-11-22T11:20:41.574Z,99798.09
2022-11-22T11:23:17.039Z,99792.75
2022-11-22T11:25:46.416Z,99794.03
2022-11-22T11:28:21.250Z,99792.09
2022-11-22T11:31:21.413Z,99791.09
2022-11-22T11:33:47.897Z,99796.72
2022-11-22T11:36:22.725Z,99791.66
2022-11-22T11:38:54.273Z,99782.16
2022-11-22T11:41:25.602Z,99786.03
2022-11-22T11:43:54.399Z,99782.38
2022-11-22T11:46:57.259Z,99774.44
2022-11-22T11:49:25.787Z,99781.22
2022-11-22T11:52:02.936Z,99781.25
2022-11-22T11:54:38.655Z,99779.22
2022-11-22T11:57:19.042Z,99769.94
2022-11-22T11:59:48.286Z,99776.34
2022-11-22T12:02:24.044Z,99776.69
2022-11-22T12:05:00.622Z,99768.66
2022-11-22T12:07:33.377Z,99768.38
2022-11-22T12:10:00.025Z,99760.47
2022-11-22T12:12:29.215Z,99760.34
2022-11-22T12:15:21.169Z,99749.91
2022-11-22T12:18:24.128Z,99754.13
2022-11-22T12:21:13.114Z,99760.78
2022-11-22T12:23:50.711Z,99774.91
2022-11-22T12:26:18.559Z,99775.59
2022-11-22T12:28:46.770Z,99766.56
2022-11-22T12:31:27.757Z,99774.19
2022-11-22T12:33:58.974Z,99786.06
2022-11-22T12:36:51.598Z,99788.06
2022-11-22T12:39:25.507Z,99787.91
2022-11-22T12:41:58.860Z,99766.28
2022-11-22T12:44:26.323Z,99780.69
2022-11-22T12:47:06.014Z,99771.09
2022-11-22T12:49:44.159Z,99775.47
2022-11-22T12:52:22.085Z,99773.63
2022-11-22T12:54:54.949Z,99769.25
2022-11-22T12:57:33.900Z,99770.25
2022-11-22T13:00:27.271Z,99770.25
2022-11-22T13:02:59.874Z,99776.19
2022-11-22T13:05:32.882Z,99784.09
2022-11-22T13:08:13.023Z,99781.13
2022-11-22T13:11:05.543Z,99781.56
2022-11-22T13:13:37.285Z,99786.50
2022-11-22T13:16:08.523Z,99789.47
2022-11-22T13:18:40.632Z,99788.06
2022-11-22T13:21:40.240Z,99785.94
2022-11-22T13:24:24.577Z,99787.63
2022-11-22T13:27:28.817Z,99781.25
2022-11-22T13:29:59.595Z,99782.97
2022-11-22T13:32:34.612Z,99789.03
2022-11-22T13:35:13.607Z,99780.56
2022-11-22T13:37:50.213Z,99767.00
2022-11-22T13:40:16.792Z,99772.50
2022-11-22T13:42:43.666Z,99768.56
2022-11-22T13:45:23.198Z,99770.25
2022-11-22T13:47:51.299Z,99767.69
2022-11-22T13:50:36.187Z,99756.69
2022-11-22T13:53:28.770Z,99750.19
2022-11-22T13:56:00.384Z,99756.41
2022-11-22T13:58:27.315Z,99757.81
2022-11-22T14:00:55.550Z,99758.78
2022-11-22T14:03:31.639Z,99753.16
2022-11-22T14:05:58.306Z,99744.78
2022-11-22T14:08:40.726Z,99751.75
2022-11-22T14:11:17.117Z,99749.47
2022-11-22T14:14:02.809Z,99749.75
2022-11-22T14:16:32.122Z,99743.81
2022-11-22T14:19:19.702Z,99739.44
2022-11-22T14:22:06.470Z,99746.25
2022-11-22T14:25:00.686Z,99749.88
2022-11-22T14:27:42.360Z,99749.06
2022-11-22T14:30:37.052Z,99737.31
2022-11-22T14:33:13.875Z,99748.75
2022-11-22T14:36:06.816Z,99757.53
2022-11-22T14:38:38.098Z,99753.13
2022-11-22T14:41:43.328Z,99752.84
2022-11-22T14:44:22.002Z,99745.94
2022-11-22T14:46:55.872Z,99741.84
2022-11-22T14:49:34.180Z,99736.19
2022-11-22T14:52:01.034Z,99739.16
2022-11-22T14:54:49.544Z,99732.50
2022-11-22T14:57:20.179Z,99714.88
2022-11-22T15:00:11.363Z,99742.81
2022-11-22T15:03:11.749Z,99744.94
2022-11-22T15:09:18.217Z,99749.31
2022-11-22T15:09:42.117Z,99749.59
2022-11-22T15:12:04.880Z,99745.94
2022-11-22T15:14:50.210Z,99749.59
2022-11-22T15:58:03.106Z,99760.63
2022-11-22T16:00:29.981Z,99767.56
2022-11-22T16:03:00.849Z,99763.47
2022-11-22T16:06:07.929Z,99763.47
2022-11-22T16:08:27.820Z,99770.25
2022-11-22T16:10:59.634Z,99765.16
2022-11-22T16:13:28.153Z,99770.25
2022-11-22T16:16:05.509Z,99774.19
2022-11-22T16:18:33.201Z,99770.09
2022-11-22T16:21:03.445Z,99767.25
2022-11-22T16:23:33.120Z,99772.06
2022-11-22T16:26:18.485Z,99781.97
2022-11-22T16:28:46.301Z,99767.13
2022-11-22T16:31:15.768Z,99770.09
2022-11-22T16:33:42.069Z,99762.34
2022-11-22T16:36:11.519Z,99776.47
2022-11-22T16:38:37.709Z,99777.88
2022-11-22T16:41:05.520Z,99778.00
2022-11-22T16:43:34.461Z,99778.97
2022-11-22T16:46:02.287Z,99779.16
2022-11-22T16:48:32.780Z,99777.47
2022-11-22T16:51:06.207Z,99776.47
2022-11-22T16:53:44.646Z,99781.97
2022-11-22T16:56:17.832Z,99787.59
2022-11-22T16:58:44.446Z,99785.94
2022-11-22T17:01:15.260Z,99783.66
2022-11-22T17:03:42.770Z,99788.19
2022-11-22T17:06:21.135Z,99785.66
2022-11-22T17:08:49.072Z,99782.41
2022-11-22T17:11:18.722Z,99784.53
2022-11-22T17:13:45.541Z,99781.25
2022-11-22T17:16:13.464Z,99787.06
2022-11-22T17:18:40.257Z,99779.13
2022-11-22T17:21:17.747Z,99778.72
2022-11-22T17:23:44.400Z,99786.47
2022-11-22T17:26:11.134Z,99793.38
2022-11-22T17:28:37.464Z,99793.09
2022-11-22T17:31:11.515Z,99789.88
2022-11-22T17:33:37.903Z,99779.84
2022-11-22T17:36:05.993Z,99784.09
2022-11-22T17:38:32.434Z,99778.13
2022-11-22T17:40:59.526Z,99794.13
2022-11-22T17:43:26.259Z,99783.53
2022-11-22T17:45:53.099Z,99775.75
2022-11-22T17:48:19.412Z,99778.56
2022-11-22T17:50:46.049Z,99782.41
2022-11-22T17:53:12.647Z,99784.22
2022-11-22T17:56:08.570Z,99785.44
2022-11-22T17:58:26.120Z,99792.84
2022-11-22T18:01:01.870Z,99795.78
2022-11-22T18:03:28.873Z,99787.75
2022-11-22T18:05:55.731Z,99796.94
2022-11-22T18:08:22.247Z,99790.16
2022-11-22T18:10:56.196Z,99791.72
2022-11-22T18:13:22.950Z,99806.13
2022-11-22T18:15:57.349Z,99799.78
2022-11-22T18:18:55.140Z,99803.59
2022-11-22T18:21:17.466Z,99790.03
2022-11-22T18:23:44.758Z,99800.03
2022-11-22T18:29:38.618Z,99800.06
2022-11-22T18:31:53.607Z,99810.66
2022-11-22T18:34:22.308Z,99810.50
2022-11-22T18:36:55.456Z,99808.81
2022-11-22T18:39:24.625Z,99815.31
2022-11-22T18:41:51.586Z,99812.78
2022-11-22T18:44:18.104Z,99810.94
2022-11-22T18:47:02.923Z,99822.25
2022-11-22T18:49:29.812Z,99816.00
2022-11-22T18:51:57.117Z,99822.38
2022-11-22T18:54:28.667Z,99825.63
2022-11-22T18:56:58.094Z,99830.03
2022-11-22T18:59:24.386Z,99822.53
2022-11-22T19:01:51.179Z,99826.50
2022-11-22T19:04:17.647Z,99830.75
2022-11-22T19:06:44.876Z,99826.50
2022-11-22T19:09:11.649Z,99830.59
2022-11-22T19:11:38.535Z,99827.66
2022-11-22T19:14:05.025Z,99828.47
2022-11-22T19:16:34.281Z,99841.22
2022-11-22T19:19:03.828Z,99827.38
2022-11-22T19:21:31.657Z,99832.03
2022-11-22T19:24:01.125Z,99835.13
2022-11-22T19:26:28.353Z,99841.94
2022-11-22T19:28:55.943Z,99836.28
2022-11-22T19:31:27.181Z,99842.50
2022-11-22T19:33:53.740Z,99845.31
2022-11-22T19:36:26.569Z,99848.72
2022-11-22T19:38:57.771Z,99854.53
2022-11-22T19:41:24.748Z,99856.22
2022-11-22T19:43:52.355Z,99850.00
2022-11-22T19:46:20.856Z,99847.88
2022-11-22T19:48:52.027Z,99856.63
2022-11-22T19:51:27.768Z,99853.53
2022-11-22T19:54:01.954Z,99857.34
2022-11-22T19:56:32.386Z,99860.19
2022-11-22T19:59:06.097Z,99865.28
2022-11-22T20:01:34.501Z,99867.53
2022-11-22T20:04:05.038Z,99862.16
2022-11-22T20:06:33.909Z,99856.94
2022-11-22T20:09:01.308Z,99863.16
2022-11-22T20:11:29.074Z,99849.44
2022-11-22T20:13:55.890Z,99855.06
2022-11-22T20:16:27.770Z,99862.72
2022-11-22T20:18:59.083Z,99854.66
2022-11-22T20:21:30.381Z,99857.06
2022-11-22T20:24:15.619Z,99856.47
2022-11-22T20:26:43.094Z,99865.25
2022-11-22T20:29:29.064Z,99864.28
2022-11-22T20:31:56.205Z,99857.63
2022-11-22T20:34:29.986Z,99849.13
2022-11-22T20:37:10.937Z,99849.28
2022-11-22T20:39:37.333Z,99848.28
2022-11-22T20:42:32.485Z,99847.72
2022-11-22T20:44:53.792Z,99850.28
2022-11-22T20:47:20.409Z,99840.53
2022-11-22T20:49:46.580Z,99840.38
2022-11-22T20:52:13.286Z,99846.31
2022-11-22T20:54:39.486Z,99839.25
2022-11-22T20:57:07.206Z,99846.88
2022-11-22T20:59:34.472Z,99845.75
2022-11-22T21:02:02.969Z,99842.63
2022-11-22T21:04:31.657Z,99832.16
2022-11-22T21:06:59.275Z,99841.78
2022-11-22T21:09:33.856Z,99843.34
2022-11-22T21:12:01.808Z,99841.78
2022-11-22T21:14:28.725Z,99855.38
2022-11-22T21:17:22.663Z,99845.03
2022-11-22T21:19:56.079Z,99842.78
2022-11-22T21:22:30.203Z,99842.63
2022-11-22T21:25:22.353Z,99851.69
2022-11-22T21:27:49.402Z,99856.22
2022-11-22T21:30:17.029Z,99850.28
2022-11-22T21:32:50.649Z,99855.50
2022-11-22T21:35:17.164Z,99852.81
2022-11-22T21:37:53.694Z,99854.22
2022-11-22T21:40:20.285Z,99857.91
2022-11-22T21:42:46.946Z,99858.63
2022-11-22T21:45:13.357Z,99856.78
2022-11-22T21:47:40.123Z,99861.88
2022-11-22T21:50:11.458Z,99871.34
2022-11-22T21:52:38.622Z,99865.31
2022-11-22T21:55:05.285Z,99866.13
2022-11-22T21:57:31.853Z,99861.19
2022-11-22T21:59:58.040Z,99860.91
2022-11-22T22:02:24.607Z,99862.19
2022-11-22T22:04:51.593Z,99867.72
2022-11-22T22:07:44.561Z,99871.38
2022-11-22T22:10:05.274Z,99872.94
2022-11-22T22:12:31.866Z,99863.19
2022-11-22T22:14:58.092Z,99863.88
2022-11-22T22:17:24.532Z,99864.47
2022-11-22T22:19:51.684Z,99857.53
2022-11-22T22:22:18.281Z,99861.63
2022-11-22T22:24:44.438Z,99864.47
2022-11-22T22:27:10.955Z,99868.13
2022-11-22T22:29:37.167Z,99872.53
2022-11-22T22:32:09.061Z,99879.44
2022-11-22T22:34:36.624Z,99877.75
2022-11-22T22:37:03.033Z,99883.69
2022-11-22T22:39:29.621Z,99886.81
2022-11-22T22:41:56.235Z,99889.91
2022-11-22T22:44:22.497Z,99896.72
2022-11-22T22:46:48.956Z,99887.78
2022-11-22T22:49:15.118Z,99894.72
2022-11-22T22:51:41.502Z,99895.72
2022-11-22T22:54:09.507Z,99895.56
2022-11-22T22:56:35.934Z,99895.28
2022-11-22T22:59:04.423Z,99899.50
2022-11-22T23:01:31.301Z,99905.88
2022-11-22T23:03:59.070Z,99900.63
2022-11-22T23:06:33.703Z,99902.88
2022-11-22T23:09:00.276Z,99901.75
2022-11-22T23:11:47.851Z,99884.69
2022-11-22T23:14:16.810Z,99884.69
2022-11-22T23:16:43.213Z,99887.94
2022-11-22T23:19:10.917Z,99883.41
2022-11-22T23:21:37.760Z,99884.25
2022-11-22T23:24:05.255Z,99886.38
2022-11-22T23:26:31.728Z,99885.97
2022-11-22T23:28:59.011Z,99890.78
2022-11-22T23:31:25.557Z,99887.94
2022-11-22T23:33:51.736Z,99893.31
2022-11-22T23:36:19.922Z,99893.31
2022-11-22T23:38:46.247Z,99901.47
2022-11-22T23:41:20.967Z,99898.53
2022-11-22T23:43:51.942Z,99901.38
2022-11-22T23:46:18.589Z,99906.63
2022-11-22T23:48:46.425Z,99915.50
2022-11-22T23:51:14.173Z,99920.19
2022-11-22T23:53:40.299Z,99910.56
2022-11-22T23:56:20.304Z,99911.81
2022-11-22T23:58:48.203Z,99913.13
